Airfield :
LOGIN :

Register | Disclaimer

   EN    FR    IT 

 










Legend :    VFR   Marginal VFR   IFR   Intensive IFR   Very Intensive IFR
Visi :
Ceiling :
>= 8 km
>= 3000ft
5 to 8 km
1000 to 3000 ft
1500m to 5 km
500 to 1000 ft
800 to 1500m
200 to 500 ft
< 800m
< 200 ft
Symbols :   Thunderstorms  Fog  Heavy snow  Heavy precipitations  Wind > 20 kt
SIGMETs :     Misc.  Thunderstorms  Icing  Turbulence  Mountain Waves  Volcanic Ashes






- Airport Elevation : 336 ft
- IATA code : GCI


EGJB - Guernsey

CURRENT METAR :
  • 280720Z 26019KT 5000 BR FEW000 BKN002 11/11 Q1007

EXPIRED METARs :
  • 280650Z 26019KT 3000 -DZ BR FEW000 BKN002 11/11 Q1007
  • 280620Z 25023KT 3000 BR FEW000 BKN002 11/11 Q1006
  • 280550Z 26022KT 1500 BR SCT000 BKN001 11/11 Q1006
  • 280450Z 25022KT 0700 FG BKN000 11/11 Q1006 RERA

TAF TAF EGJB
Valid from the 28 at 06:00 until the 28 at 15:00 UTC


280503Z 2806/2815 26020KT 0500 -RADZ FG OVC000
BECMG 2807/2809 4000 BR OVC002
PROB30
TEMPO 2807/2810 26022G32KT 9999 NSW BKN005
BECMG 2810/2812 9999 NSW BKN010
PROB30
TEMPO 2812/2815 8000 -DZ BKN002
ATIS : +44 1481 238 957



MET'MAP, your aeronautical weather chart ! - Copyright ORBIFLY December 2007 - Disclaimer

ORBIFLY MET'MAP TEAM :

Programming & Development : Alexandra Zaïnal
Concept & original design : Baudouin d'Aumeries
Assistance for programming : Marc-Olivier Méhu
Technical & hardware support : Manuel Goepfert

Contact : metmap@orbifly.com




SOURCES & CREDITS :

   NOAA